Terminal Aerodrome Forecast
Issued by NWS Norman, OK

Home | Current Version | Previous Version | Text Only | Print | Product List | Glossary On
Versions: 1 2 3 4 5 6 7 8 9 10 11 12 13 14 15 16 17 18 19 20 21 22 23 24 25 26 27 28
000
FTUS44 KOUN 031720
TAFOKC
TAF
KOKC 031720Z 0318/0418 19016G24KT P6SM SCT050 BKN180
     FM040100 16012KT P6SM BKN200
     FM041000 16011KT P6SM BKN015
     FM041300 18016G23KT P6SM BKN010=

USA.gov is the U.S. government's official web portal to all federal, state and local government web resources and services.